New Bedford, MA

3:07 AM EDT on August 28, 2014 (GMT -0400)
New Bedford Northwest End | Change Station
CLOSE
Current Station
Personal Weather Station
Location: New Bedford, MA
Elevation: 165 ft
Nearby Weather Stations
Active Advisory: High Surf Advisory

Elev 165 ft 41.65 °N, 70.97 °W | Updated 8 minutes ago

Scattered Clouds
Scattered Clouds
68.9 °F
Feels Like 68.9 °F
N
1.7
Wind Variable Wind from WSW

Today
High -- | Low -- °F
--% Chance of Precip.
Yesterday
High -- | Low -- °F
Precip. -- in
6:05 AM 7:23 PM
Waxing Crescent, 7% visible
Pressure 29.81 in
Visibility 10.0 miles
Clouds Scattered Clouds 6000 ft
Scattered Clouds 8000 ft
Dew Point 66 °F
Humidity 89%
Rainfall 0.00 in
Snow Depth Not available.
UV 0 out of 12
Pollen 8.60 out of 12
PM2.5 Good
Flu Activity Not available.
METAR KEWB 280653Z AUTO 00000KT 10SM SCT060 SCT080 20/18 A2981 RMK AO2 RAB03E24 SLP092 P0007 T02000183

More Conditions Fewer Conditions

Pressure 29.81 in
Visibility 10.0 miles
Clouds Scattered Clouds 6000 ft
Scattered Clouds 8000 ft
Dew Point 66 °F
Humidity 89%
Rainfall 0.00 in
Snow Depth Not available.
UV 0 out of 12
Pollen 8.60 out of 12
PM2.5 Good
Flu Activity Not available.
METAR KEWB 280653Z AUTO 00000KT 10SM SCT060 SCT080 20/18 A2981 RMK AO2 RAB03E24 SLP092 P0007 T02000183

More Conditions Fewer Conditions

10-Day Weather Forecast

Almanac

Astronomy

Aug. 28, 2014 Rise Set
Actual Time 6:05 AM EDT 7:23 PM EDT
Civil Twilight 5:36 AM EDT 7:52 PM EDT
Nautical Twilight 5:02 AM EDT 8:26 PM EDT
Astronomical Twilight 4:25 AM EDT 9:03 PM EDT
Moon 8:57 AM EDT 8:42 PM EDT
Length of Visible Light 14h 15m
Length of Day
13h 17m
Tomorrow will be 2m 38s shorter.
Waxing Crescent, 7% of the Moon is Illuminated
Today
Waxing Crescent
Sep 2
First Quarter
Sep 8
Full
Sep 15
Last Quarter
Sep 24
New

Today's Extremes

State Highs State Lows

Community

WunderPhotos

Upload Photos

1,747,912 photos uploaded!

Nearby

Air Quality

  Air Quality AQ Index Pollutant
Yesterday Good
OZONE
Yesterday Good
PM2.5
Current Good
PM2.5
Thursday Good
PM2.5
Thursday Good
OZONE

Snow Depth

Station Depth Elevation
No new snow has been reported.

Earthquake Activity

City Distance Mag. Time & Date
No recent earthquake activity has been reported nearby.
Minimum magnitude displayed is 2.5.

Coastal Water Temperatures

Place Temperature
Woods Hole, MA 72.0 °F
Fall River, MA 73.9 °F
Newport, RI 70.0 °F

Nearby Weather Stations